Time;durP1;ratioP1;P1;durP2;ratioP2;P2;SDS_P1;SDS_P2;PMS_P1;PMS_P2;Temp;Humidity;BMP_temperature;BMP_pressure;BME280_temperature;BME280_humidity;BME280_pressure;Samples;Min_cycle;Max_cycle;Signal;HPM_P1;HPM_P2
2022/05/23 00:03:22;;;;;;;2.90;2.67;;;19.70;83.40;;;;;;10480632;28;20213;-79
2022/05/23 00:08:25;;;;;;;3.43;3.20;;;19.70;85.70;;;;;;10484367;28;20303;-79
2022/05/23 00:13:28;;;;;;;3.47;3.00;;;19.70;86.00;;;;;;10497639;28;20578;-78
2022/05/23 00:18:31;;;;;;;3.80;3.40;;;19.80;85.10;;;;;;10484308;28;20189;-78
2022/05/23 00:23:33;;;;;;;5.10;3.20;;;19.70;84.40;;;;;;10498737;28;20270;-79
2022/05/23 00:28:35;;;;;;;3.77;3.37;;;19.70;84.60;;;;;;10479593;28;20201;-78
2022/05/23 00:38:59;;;;;;;2.97;2.87;;;19.60;85.80;;;;;;10481078;28;20253;-78
2022/05/23 00:44:04;;;;;;;2.90;2.80;;;19.50;84.80;;;;;;10499046;28;20224;-79
2022/05/23 00:49:10;;;;;;;3.10;2.77;;;19.50;85.70;;;;;;10498876;28;20556;-79
2022/05/23 00:54:12;;;;;;;3.03;2.63;;;19.40;84.80;;;;;;10497979;28;20246;-78
2022/05/23 00:59:18;;;;;;;2.80;2.70;;;19.30;85.30;;;;;;10495376;28;20204;-78
2022/05/23 01:04:22;;;;;;;3.00;2.80;;;19.20;85.70;;;;;;10488514;28;20201;-78
2022/05/23 01:09:26;;;;;;;3.33;3.13;;;19.10;86.10;;;;;;10476001;28;20239;-78
2022/05/23 01:14:46;;;;;;;3.30;3.10;;;19.10;85.60;;;;;;10475443;28;20266;-78
2022/05/23 01:19:50;;;;;;;3.23;3.03;;;19.00;86.60;;;;;;10475087;28;20576;-78
2022/05/23 01:25:01;;;;;;;2.93;2.73;;;18.90;86.70;;;;;;10475564;28;20207;-78
2022/05/23 01:30:05;;;;;;;4.20;3.30;;;18.90;86.90;;;;;;10475852;28;20234;-78
2022/05/23 01:35:12;;;;;;;2.90;2.70;;;18.80;87.50;;;;;;10488798;28;20221;-78
2022/05/23 01:40:17;;;;;;;3.20;3.00;;;18.70;87.30;;;;;;10474817;28;20220;-78
2022/05/23 01:45:36;;;;;;;3.20;3.00;;;18.70;87.70;;;;;;10474915;28;20253;-78
2022/05/23 01:50:52;;;;;;;3.43;3.23;;;18.60;87.40;;;;;;10459210;28;20266;-78
2022/05/23 01:55:54;;;;;;;3.23;3.03;;;18.60;88.80;;;;;;10480853;28;20687;-78
2022/05/23 02:01:16;;;;;;;3.43;3.23;;;18.60;88.50;;;;;;10503953;28;20554;-78
2022/05/23 02:06:25;;;;;;;3.10;3.00;;;18.50;89.10;;;;;;10474810;28;20276;-78
2022/05/23 02:11:41;;;;;;;3.17;2.97;;;18.50;89.20;;;;;;10486097;28;20223;-78
2022/05/23 02:16:46;;;;;;;3.37;3.17;;;18.50;89.50;;;;;;10456213;28;20229;-78
2022/05/23 02:21:48;;;;;;;2.67;2.57;;;18.50;88.80;;;;;;10496476;28;20220;-78
2022/05/23 02:26:50;;;;;;;3.63;3.30;;;18.50;89.20;;;;;;10475198;28;20193;-78
2022/05/23 02:32:10;;;;;;;3.67;3.37;;;18.40;88.50;;;;;;10469065;28;20243;-77
2022/05/23 02:37:14;;;;;;;3.30;3.10;;;18.50;88.90;;;;;;10488418;28;20231;-77
2022/05/23 02:42:23;;;;;;;3.00;2.80;;;18.50;87.80;;;;;;10474905;28;20212;-77
2022/05/23 02:47:27;;;;;;;3.03;2.80;;;18.50;88.50;;;;;;10472885;28;20669;-77
2022/05/23 02:52:30;;;;;;;3.23;2.93;;;18.40;88.90;;;;;;10474647;28;20224;-77
2022/05/23 02:57:39;;;;;;;3.10;2.90;;;18.40;89.20;;;;;;10480805;28;20259;-77
2022/05/23 03:03:02;;;;;;;3.20;3.00;;;18.30;89.60;;;;;;10481155;28;20712;-77
2022/05/23 03:08:25;;;;;;;3.40;3.20;;;18.40;90.00;;;;;;10477931;28;20192;-77
2022/05/23 03:13:29;;;;;;;2.70;2.60;;;18.40;89.10;;;;;;10481747;28;20554;-77
2022/05/23 03:18:33;;;;;;;3.70;3.40;;;18.40;89.10;;;;;;10502830;28;20246;-78
2022/05/23 03:29:00;;;;;;;3.30;3.00;;;18.30;89.00;;;;;;10479235;28;20208;-77
2022/05/23 03:34:03;;;;;;;4.50;3.73;;;18.30;90.00;;;;;;10479416;28;20216;-78
2022/05/23 03:39:06;;;;;;;4.37;3.43;;;18.30;89.50;;;;;;10472891;28;20213;-78
2022/05/23 03:44:09;;;;;;;3.37;3.17;;;18.30;90.60;;;;;;10479041;28;20613;-78
2022/05/23 03:49:13;;;;;;;3.27;3.10;;;18.40;89.10;;;;;;10478710;28;20200;-77
2022/05/23 03:54:17;;;;;;;2.93;2.70;;;18.40;89.20;;;;;;10461925;28;20211;-77
2022/05/23 03:59:22;;;;;;;3.70;3.17;;;18.40;87.80;;;;;;10478203;28;20579;-78
2022/05/23 04:04:31;;;;;;;3.20;3.00;;;18.30;88.70;;;;;;10471676;28;20204;-77
2022/05/23 04:09:52;;;;;;;7.20;6.07;;;18.40;88.50;;;;;;10497723;28;20234;-78
2022/05/23 04:15:02;;;;;;;8.60;8.00;;;18.30;93.90;;;;;;10477837;28;20212;-77
2022/05/23 04:20:10;;;;;;;10.10;9.60;;;18.00;96.80;;;;;;10478307;28;20221;-77
2022/05/23 04:25:21;;;;;;;10.30;9.80;;;17.70;97.30;;;;;;10498250;28;20196;-78
2022/05/23 04:30:24;;;;;;;10.63;9.97;;;17.40;96.50;;;;;;10482919;28;20473;-78
2022/05/23 04:35:27;;;;;;;8.87;8.30;;;17.20;97.50;;;;;;10499503;28;20228;-78
2022/05/23 04:40:30;;;;;;;8.70;8.20;;;17.10;98.70;;;;;;10482267;28;20323;-78
2022/05/23 04:45:35;;;;;;;7.90;7.50;;;17.10;99.90;;;;;;10481515;28;20216;-78
2022/05/23 04:50:46;;;;;;;5.87;5.47;;;17.10;99.90;;;;;;10482727;28;20230;-78
2022/05/23 04:55:48;;;;;;;8.37;7.67;;;17.20;99.90;;;;;;10481240;28;20215;-78
2022/05/23 05:00:50;;;;;;;8.30;7.70;;;17.20;99.90;;;;;;10481702;28;20578;-78
2022/05/23 05:05:54;;;;;;;9.93;9.23;;;17.20;99.90;;;;;;10477870;28;20192;-78
2022/05/23 05:10:58;;;;;;;9.50;8.90;;;17.10;99.90;;;;;;10471390;28;20220;-77
2022/05/23 05:16:03;;;;;;;9.00;8.50;;;17.00;99.90;;;;;;10469418;28;20740;-78
2022/05/23 05:21:11;;;;;;;7.60;7.10;;;16.90;99.90;;;;;;10475656;28;20220;-78
2022/05/23 05:26:32;;;;;;;8.13;7.70;;;17.00;99.90;;;;;;10492734;28;20660;-77
2022/05/23 05:31:40;;;;;;;12.93;8.57;;;16.90;99.90;;;;;;10458089;28;20216;-78
2022/05/23 05:36:48;;;;;;;8.47;7.97;;;17.00;99.90;;;;;;10474638;28;20307;-78
2022/05/23 05:41:56;;;;;;;7.57;7.17;;;17.00;99.90;;;;;;10493054;28;20670;-78
2022/05/23 05:47:05;;;;;;;7.50;7.10;;;17.10;99.90;;;;;;10489945;28;20208;-78
2022/05/23 05:52:13;;;;;;;7.70;7.10;;;17.20;99.90;;;;;;10477081;28;20228;-78
2022/05/23 05:57:36;;;;;;;8.07;7.57;;;17.20;99.90;;;;;;10466376;28;20577;-78
2022/05/23 06:02:41;;;;;;;7.80;7.07;;;17.40;99.90;;;;;;10486740;28;20258;-78
2022/05/23 06:13:24;;;;;;;7.47;7.00;;;17.90;99.90;;;;;;10432877;28;20239;-78
2022/05/23 06:18:40;;;;;;;7.90;7.40;;;18.20;99.90;;;;;;10484516;28;20243;-78
2022/05/23 06:23:46;;;;;;;7.67;7.17;;;18.50;99.90;;;;;;10484330;28;20260;-78
2022/05/23 06:29:05;;;;;;;6.67;6.17;;;18.80;99.90;;;;;;10488693;28;20300;-79
2022/05/23 06:34:08;;;;;;;7.10;6.60;;;19.10;99.90;;;;;;10492146;28;20300;-79
2022/05/23 06:39:12;;;;;;;6.30;5.90;;;19.50;99.90;;;;;;10493173;28;20217;-79
2022/05/23 06:44:37;;;;;;;6.07;5.73;;;19.60;99.90;;;;;;10482415;28;20220;-79
2022/05/23 06:49:57;;;;;;;6.73;6.23;;;19.60;99.90;;;;;;10509462;28;20216;-79
2022/05/23 06:55:21;;;;;;;6.23;5.63;;;19.70;99.90;;;;;;10508785;28;20251;-79
2022/05/23 07:00:24;;;;;;;6.07;5.63;;;19.60;99.90;;;;;;10489803;28;20236;-79
2022/05/23 07:16:39;;;;;;;5.20;4.87;;;20.00;99.90;;;;;;10488180;28;20226;-79
2022/05/23 07:21:43;;;;;;;5.10;4.70;;;20.30;99.50;;;;;;10488939;28;20216;-78
2022/05/23 07:26:51;;;;;;;4.50;4.30;;;20.60;99.90;;;;;;10489285;28;20656;-79
2022/05/23 07:31:54;;;;;;;4.60;4.33;;;20.80;99.00;;;;;;10488721;28;20726;-79
2022/05/23 07:36:58;;;;;;;5.33;4.83;;;21.00;99.70;;;;;;10488315;28;20291;-79
2022/05/23 07:42:03;;;;;;;4.30;4.00;;;21.30;99.10;;;;;;10510216;28;20238;-79
2022/05/23 07:47:07;;;;;;;4.80;4.50;;;21.60;96.90;;;;;;10492296;28;20246;-79
2022/05/23 07:52:10;;;;;;;4.13;3.90;;;21.70;97.10;;;;;;10468431;28;20225;-79
2022/05/23 08:02:44;;;;;;;4.43;4.10;;;21.70;96.80;;;;;;10477670;28;20252;-79
2022/05/23 08:07:55;;;;;;;3.77;3.57;;;21.70;96.00;;;;;;10476538;28;20210;-79
2022/05/23 08:13:02;;;;;;;4.20;3.73;;;21.90;98.10;;;;;;10478232;28;20706;-79
2022/05/23 08:18:04;;;;;;;3.97;3.67;;;22.20;96.20;;;;;;10456922;28;20264;-79
2022/05/23 08:23:10;;;;;;;4.17;3.87;;;22.40;96.30;;;;;;10468716;28;20574;-79
2022/05/23 08:28:33;;;;;;;5.30;4.10;;;22.40;96.00;;;;;;10475140;28;20207;-79
2022/05/23 08:33:35;;;;;;;4.93;4.47;;;22.30;95.80;;;;;;10477532;28;20223;-79
2022/05/23 08:38:53;;;;;;;4.93;4.63;;;22.10;95.70;;;;;;10468585;28;20353;-79
2022/05/23 08:44:16;;;;;;;4.30;4.00;;;22.00;96.50;;;;;;10467238;28;20244;-79
2022/05/23 08:49:43;;;;;;;5.40;4.90;;;22.00;96.80;;;;;;10474769;28;20215;-79
2022/05/23 08:54:55;;;;;;;8.03;4.20;;;22.10;96.60;;;;;;10457644;28;20333;-79
2022/05/23 09:00:30;;;;;;;5.23;4.83;;;22.00;96.10;;;;;;10473802;28;20749;-79
2022/05/23 09:05:37;;;;;;;5.07;4.57;;;21.70;96.30;;;;;;10463041;28;20260;-79
2022/05/23 09:10:44;;;;;;;4.70;4.27;;;21.70;97.20;;;;;;10463517;28;20221;-79
2022/05/23 09:15:51;;;;;;;4.30;4.10;;;21.90;97.90;;;;;;10478690;28;20626;-79
2022/05/23 09:20:57;;;;;;;6.30;5.17;;;22.20;97.40;;;;;;10466355;28;20361;-79
2022/05/23 09:26:03;;;;;;;5.17;4.70;;;22.20;97.00;;;;;;10481383;28;20611;-79
2022/05/23 09:31:16;;;;;;;10.60;6.50;;;22.10;97.10;;;;;;10495194;28;20228;-78
2022/05/23 09:36:20;;;;;;;5.00;4.70;;;22.10;97.80;;;;;;10472735;28;20234;-78
2022/05/23 09:52:29;;;;;;;5.10;4.70;;;22.10;99.20;;;;;;10492292;28;20293;-79
2022/05/23 09:57:35;;;;;;;5.30;4.97;;;22.40;98.80;;;;;;10490556;28;20272;-79
2022/05/23 10:02:40;;;;;;;5.17;4.87;;;22.80;97.90;;;;;;10475039;28;20228;-79
2022/05/23 10:07:49;;;;;;;4.33;3.80;;;23.30;98.00;;;;;;10498131;28;20578;-79
2022/05/23 10:12:53;;;;;;;4.60;4.30;;;24.00;97.40;;;;;;10500346;28;20482;-79
2022/05/23 10:18:04;;;;;;;5.00;4.60;;;24.30;96.70;;;;;;10511698;28;20228;-79
2022/05/23 10:23:13;;;;;;;4.47;4.17;;;24.20;96.80;;;;;;10504680;28;20278;-79
2022/05/23 10:28:22;;;;;;;7.03;4.37;;;24.20;96.70;;;;;;10471491;28;20665;-79
2022/05/23 10:33:28;;;;;;;5.40;5.00;;;24.00;96.60;;;;;;10458242;28;20247;-79
2022/05/23 10:44:01;;;;;;;4.70;4.17;;;24.00;97.30;;;;;;10485661;28;20265;-79
2022/05/23 10:49:17;;;;;;;5.03;4.73;;;24.00;97.70;;;;;;10483069;28;20193;-79
2022/05/23 10:54:35;;;;;;;5.97;4.77;;;23.80;97.60;;;;;;10483472;28;20206;-79
2022/05/23 10:59:42;;;;;;;4.53;4.20;;;23.80;97.10;;;;;;10482338;28;20220;-79
2022/05/23 11:04:57;;;;;;;4.93;4.50;;;23.70;98.10;;;;;;10481662;28;20647;-79
2022/05/23 11:10:08;;;;;;;4.90;4.50;;;23.50;98.10;;;;;;10471089;28;20703;-79
2022/05/23 11:15:42;;;;;;;10.87;5.60;;;23.30;99.20;;;;;;10483786;28;20232;-80
2022/05/23 11:20:47;;;;;;;10.80;8.27;;;22.90;99.80;;;;;;10484391;28;20224;-79
2022/05/23 11:25:55;;;;;;;7.30;6.60;;;22.60;99.90;;;;;;10482065;28;20741;-79
2022/05/23 11:36:34;;;;;;;14.83;13.80;;;21.30;99.90;;;;;;10464806;28;20221;-79
2022/05/23 11:41:41;;;;;;;11.93;11.13;;;20.70;99.90;;;;;;10485925;28;20220;-79
2022/05/23 11:47:06;;;;;;;10.40;9.50;;;20.30;99.90;;;;;;10482912;28;20489;-80
2022/05/23 11:52:25;;;;;;;12.80;8.10;;;20.00;99.90;;;;;;10494351;22;20232;-81
2022/05/23 11:57:35;;;;;;;8.17;7.33;;;19.60;99.90;;;;;;10438173;28;20228;-81
2022/05/23 12:02:39;;;;;;;6.97;6.37;;;19.20;99.90;;;;;;10404917;28;20222;-81
2022/05/23 12:08:14;;;;;;;6.80;6.30;;;19.00;99.90;;;;;;10387474;28;20672;-81
2022/05/23 12:13:51;;;;;;;12.27;7.27;;;19.10;99.90;;;;;;10392709;28;20253;-79
2022/05/23 12:19:19;;;;;;;5.67;5.27;;;19.00;99.90;;;;;;10410830;28;20242;-80
2022/05/23 12:24:31;;;;;;;6.70;6.20;;;18.70;99.90;;;;;;10422884;28;20328;-80
2022/05/23 12:29:36;;;;;;;8.30;5.17;;;18.50;99.90;;;;;;10436121;28;20530;-80
2022/05/23 12:34:43;;;;;;;6.80;6.00;;;18.40;99.90;;;;;;10403693;28;20203;-80
2022/05/23 12:39:59;;;;;;;6.93;6.23;;;18.30;99.90;;;;;;10409943;28;20235;-80
2022/05/23 12:45:31;;;;;;;6.80;5.90;;;18.40;99.90;;;;;;10410407;28;20190;-80
2022/05/23 12:50:50;;;;;;;8.50;6.10;;;18.60;99.90;;;;;;10440684;28;20241;-81
2022/05/23 12:56:12;;;;;;;8.30;5.17;;;18.80;99.90;;;;;;10417724;28;20202;-80
2022/05/23 13:01:21;;;;;;;7.50;6.40;;;19.00;99.90;;;;;;10383734;28;20600;-80
2022/05/23 13:06:27;;;;;;;7.10;6.03;;;19.40;99.90;;;;;;10413212;28;20277;-80
2022/05/23 13:11:34;;;;;;;6.07;5.60;;;19.80;99.90;;;;;;10405920;28;20217;-80
2022/05/23 13:16:41;;;;;;;6.83;6.20;;;20.20;99.90;;;;;;10417175;28;20725;-80
2022/05/23 13:27:05;;;;;;;6.57;3.50;;;20.80;99.90;;;;;;10429355;28;20420;-80
2022/05/23 13:32:11;;;;;;;4.60;4.13;;;21.10;99.90;;;;;;10359785;28;20214;-80
2022/05/23 13:37:27;;;;;;;4.50;4.10;;;21.20;99.90;;;;;;10392493;28;20225;-81
2022/05/23 13:42:31;;;;;;;6.83;3.63;;;21.20;99.90;;;;;;10376503;28;20236;-80
2022/05/23 14:08:08;;;;;;;4.87;3.87;;;21.30;99.90;;;;;;10278969;28;20239;-82
2022/05/23 14:13:12;;;;;;;4.17;3.27;;;21.30;99.90;;;;;;10377413;28;20320;-79
2022/05/23 14:18:17;;;;;;;5.73;3.30;;;21.40;99.90;;;;;;10388383;28;20279;-81
2022/05/23 14:23:26;;;;;;;6.17;4.33;;;21.40;99.90;;;;;;10402113;28;20229;-80
2022/05/23 14:28:30;;;;;;;4.57;4.17;;;21.40;99.90;;;;;;10378075;28;20194;-80
2022/05/23 14:33:37;;;;;;;3.93;3.60;;;21.50;99.90;;;;;;10389761;28;20260;-80
2022/05/23 14:38:43;;;;;;;4.20;3.30;;;21.60;99.90;;;;;;10382025;28;20556;-79
2022/05/23 14:43:46;;;;;;;10.27;3.87;;;21.60;99.90;;;;;;10383165;28;20319;-81
2022/05/23 14:48:55;;;;;;;4.20;2.83;;;21.80;99.90;;;;;;10383111;28;20205;-77
2022/05/23 15:05:04;;;;;;;4.23;3.87;;;22.10;99.90;;;;;;10382147;28;20203;-77
2022/05/23 15:10:09;;;;;;;10.23;3.73;;;22.20;99.90;;;;;;10390960;28;20222;-78
2022/05/23 15:15:11;;;;;;;10.63;3.20;;;22.30;99.90;;;;;;10384901;28;20643;-82
2022/05/23 15:20:13;;;;;;;5.63;3.60;;;22.50;99.90;;;;;;10398850;28;20226;-79
2022/05/23 15:25:17;;;;;;;4.60;3.10;;;22.60;99.90;;;;;;10405123;28;20300;-79
2022/05/23 15:30:22;;;;;;;5.13;4.10;;;22.80;99.90;;;;;;10385982;28;20698;-79
2022/05/23 15:35:24;;;;;;;5.27;3.63;;;22.80;99.90;;;;;;10379138;28;20378;-78
2022/05/23 15:40:29;;;;;;;5.80;3.90;;;22.80;99.90;;;;;;10395328;28;20222;-78
2022/05/23 15:45:34;;;;;;;4.07;3.43;;;22.80;99.90;;;;;;10386942;28;20209;-78
2022/05/23 15:50:38;;;;;;;3.60;3.30;;;22.90;99.90;;;;;;10418632;28;20214;-78
2022/05/23 15:55:44;;;;;;;5.83;4.00;;;22.90;99.90;;;;;;10351103;28;20689;-78
2022/05/23 16:00:47;;;;;;;7.47;3.47;;;22.80;99.90;;;;;;10392191;28;20234;-78
2022/05/23 16:05:50;;;;;;;4.03;2.97;;;22.80;99.90;;;;;;10372190;28;20206;-78
2022/05/23 16:11:01;;;;;;;5.90;3.70;;;22.60;99.90;;;;;;10386733;28;20231;-78
2022/05/23 16:16:06;;;;;;;8.00;3.90;;;22.60;99.90;;;;;;10369498;28;20202;-78
2022/05/23 16:21:11;;;;;;;6.20;4.53;;;22.50;99.90;;;;;;10378832;28;20226;-77
2022/05/23 16:26:14;;;;;;;6.23;4.33;;;22.40;99.90;;;;;;10399075;28;20198;-77
2022/05/23 16:31:17;;;;;;;3.60;3.40;;;22.30;99.90;;;;;;10390761;28;20230;-77
2022/05/23 16:36:38;;;;;;;9.20;4.33;;;22.20;99.90;;;;;;10409850;28;20209;-78
2022/05/23 16:41:43;;;;;;;5.00;4.30;;;22.10;99.90;;;;;;10390486;28;20222;-78
2022/05/23 16:46:46;;;;;;;6.03;4.53;;;21.90;99.90;;;;;;10383405;28;20205;-78
2022/05/23 16:51:48;;;;;;;7.20;4.40;;;21.70;99.90;;;;;;10404382;28;20272;-77
2022/05/23 16:56:51;;;;;;;9.37;5.23;;;21.60;99.90;;;;;;10400234;28;20233;-80
2022/05/23 17:01:55;;;;;;;4.73;3.63;;;21.50;99.90;;;;;;10413227;28;20305;-79
2022/05/23 17:06:57;;;;;;;7.73;3.80;;;21.50;99.90;;;;;;10370631;28;20206;-79
2022/05/23 17:12:04;;;;;;;4.60;3.40;;;21.40;99.90;;;;;;10396758;28;20325;-78
2022/05/23 17:17:07;;;;;;;6.10;3.67;;;21.40;99.90;;;;;;10379764;28;20225;-78
2022/05/23 17:22:09;;;;;;;3.30;3.00;;;21.30;99.90;;;;;;10400696;28;20221;-78
2022/05/23 17:27:15;;;;;;;4.53;3.30;;;21.20;99.90;;;;;;10397273;28;20301;-77
2022/05/23 17:32:17;;;;;;;8.07;3.97;;;21.10;99.90;;;;;;10403510;28;20218;-79
2022/05/23 17:37:20;;;;;;;8.57;4.30;;;21.10;99.90;;;;;;10398099;28;20225;-78
2022/05/23 17:42:23;;;;;;;4.27;3.97;;;21.20;99.90;;;;;;10410249;28;20218;-79
2022/05/23 17:47:26;;;;;;;6.97;4.20;;;21.20;99.90;;;;;;10359035;28;20729;-77
2022/05/23 17:52:30;;;;;;;4.30;3.90;;;21.20;99.90;;;;;;10384725;28;20224;-78
2022/05/23 17:57:34;;;;;;;4.83;3.77;;;21.20;99.90;;;;;;10408034;28;20194;-78
2022/05/23 18:02:37;;;;;;;6.80;3.37;;;21.20;99.90;;;;;;10413868;28;20720;-78
2022/05/23 18:07:39;;;;;;;5.00;3.43;;;21.20;99.90;;;;;;10407871;28;20210;-78
2022/05/23 18:12:43;;;;;;;5.57;3.60;;;21.10;99.90;;;;;;10374210;28;20293;-78
2022/05/23 18:23:06;;;;;;;4.60;3.40;;;20.80;99.90;;;;;;10404095;28;20697;-78
2022/05/23 18:29:06;;;;;;;4.17;2.70;;;20.60;99.90;;;;;;10436896;28;20221;-80
2022/05/23 18:34:13;;;;;;;7.33;3.67;;;20.60;99.90;;;;;;10379455;28;20227;-79
2022/05/23 18:39:17;;;;;;;5.17;3.60;;;20.50;99.90;;;;;;10396328;28;20265;-83
2022/05/23 18:44:20;;;;;;;6.87;4.70;;;20.50;99.90;;;;;;10384381;28;20222;-81
2022/05/23 18:54:41;;;;;;;3.57;3.37;;;20.40;99.90;;;;;;10410556;28;20697;-81
2022/05/23 18:59:48;;;;;;;3.30;3.10;;;20.40;99.90;;;;;;10394933;28;20294;-82
2022/05/23 19:04:52;;;;;;;4.07;3.40;;;20.50;99.90;;;;;;10402426;28;20223;-82
2022/05/23 19:09:55;;;;;;;4.83;3.00;;;20.60;99.90;;;;;;10397715;28;20206;-80
2022/05/23 19:14:59;;;;;;;3.40;3.10;;;20.60;99.90;;;;;;10416343;28;20588;-81
2022/05/23 19:20:02;;;;;;;4.00;3.50;;;20.60;99.90;;;;;;10374068;28;20768;-81
2022/05/23 19:25:08;;;;;;;4.50;3.53;;;20.60;99.90;;;;;;10414930;28;20265;-80
2022/05/23 19:30:13;;;;;;;4.53;3.30;;;20.60;99.90;;;;;;10384840;28;20354;-81
2022/05/23 19:35:16;;;;;;;3.70;3.40;;;20.50;99.90;;;;;;10379995;28;20690;-80
2022/05/23 19:40:21;;;;;;;4.10;3.50;;;20.50;99.90;;;;;;10400631;28;20231;-80
2022/05/23 19:45:28;;;;;;;3.40;3.10;;;20.50;99.90;;;;;;10404435;28;20289;-80
2022/05/23 19:50:31;;;;;;;5.93;3.60;;;20.50;99.90;;;;;;10416702;28;20221;-82
2022/05/23 19:55:33;;;;;;;4.83;3.20;;;20.40;99.90;;;;;;10389790;28;20445;-80
2022/05/23 20:00:37;;;;;;;3.93;3.20;;;20.40;99.90;;;;;;10389645;28;20351;-80
2022/05/23 20:11:01;;;;;;;4.17;3.50;;;20.40;99.90;;;;;;10404020;28;20225;-80
2022/05/23 20:16:06;;;;;;;3.83;3.53;;;20.40;99.90;;;;;;10405023;28;20198;-82
2022/05/23 20:21:08;;;;;;;3.70;3.20;;;20.40;99.90;;;;;;10393452;28;20226;-81
2022/05/23 20:26:11;;;;;;;5.10;4.70;;;20.40;99.90;;;;;;10382309;28;20213;-80
2022/05/23 20:31:15;;;;;;;7.80;3.77;;;20.40;99.90;;;;;;10405234;28;20209;-80
2022/05/23 20:36:18;;;;;;;4.43;3.47;;;20.40;99.90;;;;;;10390678;28;20201;-80
2022/05/23 20:41:20;;;;;;;5.20;3.67;;;20.40;99.90;;;;;;10443755;28;20835;-79
2022/05/23 20:46:32;;;;;;;4.03;3.63;;;20.50;99.90;;;;;;10424318;28;20197;-80
2022/05/23 20:51:35;;;;;;;5.57;3.33;;;20.50;99.90;;;;;;10421861;28;20206;-80
2022/05/23 20:56:38;;;;;;;3.03;2.83;;;20.60;99.90;;;;;;10397229;28;20220;-80
2022/05/23 23:43:20;;;;;;;2.80;2.70;;;19.70;99.90;;;;;;10493582;28;20216;-82
2022/05/23 23:48:22;;;;;;;3.50;2.70;;;19.80;99.90;;;;;;10477514;28;20209;-82
2022/05/23 23:53:24;;;;;;;2.97;2.77;;;19.80;99.90;;;;;;10473235;22;20229;-79
2022/05/23 23:58:28;;;;;;;2.80;2.70;;;19.90;99.90;;;;;;10442020;28;20204;-79
